Time;durP1;ratioP1;P1;durP2;ratioP2;P2;SDS_P1;SDS_P2;PMS_P1;PMS_P2;Temp;Humidity;BMP_temperature;BMP_pressure;BME280_temperature;BME280_humidity;BME280_pressure;Samples;Min_cycle;Max_cycle;Signal;HPM_P1;HPM_P2
2021/12/31 00:02:20;;;;;;;15.27;9.47;;;;;;;2.64;96.88;100948.45;1409135;87;22104;-88
2021/12/31 00:04:48;;;;;;;12.50;8.10;;;;;;;2.72;96.64;100942.82;1409166;87;22170;-87
2021/12/31 00:07:15;;;;;;;17.17;9.23;;;;;;;2.72;96.64;100942.82;1392431;88;21913;-85
2021/12/31 00:09:43;;;;;;;14.97;8.83;;;;;;;2.75;96.75;100937.89;1411388;87;21949;-88
2021/12/31 00:12:10;;;;;;;13.97;8.20;;;;;;;2.74;96.33;100931.83;1411021;87;21883;-88
2021/12/31 00:14:37;;;;;;;14.13;8.67;;;;;;;2.76;96.37;100929.95;1411560;87;22017;-88
2021/12/31 00:17:06;;;;;;;11.37;7.37;;;;;;;2.79;96.56;100927.63;1411198;87;22837;-87
2021/12/31 00:19:38;;;;;;;12.80;8.03;;;;;;;2.79;96.33;100928.50;1410915;87;22928;-87
2021/12/31 00:22:41;;;;;;;12.67;8.50;;;;;;;2.78;96.25;100929.88;1408482;87;21912;-88
2021/12/31 00:24:42;;;;;;;14.67;9.00;;;;;;;2.79;96.20;100930.24;1390279;87;22096;-87
2021/12/31 00:27:09;;;;;;;11.70;7.50;;;;;;;2.79;96.14;100935.03;1391354;88;21920;-88
2021/12/31 00:29:36;;;;;;;11.17;7.63;;;;;;;2.77;96.21;100939.49;1411246;87;22032;-88
2021/12/31 00:32:03;;;;;;;10.33;7.30;;;;;;;2.75;96.06;100941.34;1410969;87;21980;-87
2021/12/31 00:34:30;;;;;;;18.67;9.40;;;;;;;2.76;96.14;100942.17;1411206;87;21930;-88
2021/12/31 00:36:58;;;;;;;13.67;8.67;;;;;;;2.78;96.41;100933.80;1410945;87;22844;-87
2021/12/31 00:39:25;;;;;;;11.20;7.37;;;;;;;2.78;96.29;100941.64;1411255;87;22037;-87
2021/12/31 00:41:52;;;;;;;11.87;7.87;;;;;;;2.77;96.21;100934.73;1410998;87;21922;-87
2021/12/31 00:44:20;;;;;;;13.50;8.90;;;;;;;2.77;96.14;100932.13;1410972;87;21884;-87
2021/12/31 00:46:47;;;;;;;10.23;7.43;;;;;;;2.79;96.22;100925.02;1411218;87;21971;-87
2021/12/31 00:49:14;;;;;;;12.63;8.43;;;;;;;2.81;96.19;100925.78;1411039;87;21856;-87
2021/12/31 00:51:41;;;;;;;10.57;7.33;;;;;;;2.81;96.12;100921.86;1411385;87;21932;-87
2021/12/31 00:54:08;;;;;;;12.07;8.03;;;;;;;2.80;96.11;100922.33;1411482;87;21908;-87
2021/12/31 00:56:36;;;;;;;11.20;7.73;;;;;;;2.84;96.27;100933.45;1410973;87;21904;-87
2021/12/31 00:59:03;;;;;;;13.50;8.23;;;;;;;2.83;96.12;100939.62;1411496;87;21937;-87
2021/12/31 01:01:34;;;;;;;12.60;7.57;;;;;;;2.84;96.05;100939.98;1409337;88;21912;-87
2021/12/31 01:04:01;;;;;;;10.53;7.53;;;;;;;2.85;96.08;100937.73;1409094;86;22050;-87
2021/12/31 01:06:28;;;;;;;12.13;7.67;;;;;;;2.87;96.17;100949.80;1410475;87;21289;-89
2021/12/31 01:08:55;;;;;;;11.50;6.53;;;;;;;2.91;96.18;100940.03;1383279;87;22093;-87
2021/12/31 01:11:22;;;;;;;10.60;7.23;;;;;;;2.92;96.09;100933.40;1393798;87;22017;-89
2021/12/31 01:13:59;;;;;;;9.43;6.53;;;;;;;2.92;95.95;100936.48;1392081;88;22084;-89
2021/12/31 01:16:34;;;;;;;9.53;6.47;;;;;;;2.88;95.74;100933.67;1393227;88;22017;-89
2021/12/31 01:21:21;;;;;;;8.43;4.73;;;;;;;2.78;96.21;100939.02;1393976;88;21971;-90
2021/12/31 01:23:51;;;;;;;7.23;4.93;;;;;;;2.74;96.50;100940.97;1394810;87;22016;-90
2021/12/31 01:26:18;;;;;;;9.33;6.33;;;;;;;2.76;96.34;100940.88;1394544;88;21943;-90
2021/12/31 01:28:46;;;;;;;7.10;4.40;;;;;;;2.77;96.50;100938.66;1396078;87;22082;-91
2021/12/31 01:31:13;;;;;;;8.03;6.07;;;;;;;2.78;96.46;100932.02;1394541;88;22060;-90
2021/12/31 01:33:40;;;;;;;7.40;5.80;;;;;;;2.78;96.49;100932.48;1394878;87;21994;-90
2021/12/31 01:36:07;;;;;;;8.97;5.97;;;;;;;2.80;96.48;100934.09;1394388;88;21979;-90
2021/12/31 01:38:35;;;;;;;7.33;5.67;;;;;;;2.81;96.44;100929.70;1394527;88;21875;-89
2021/12/31 01:41:02;;;;;;;9.07;5.50;;;;;;;2.80;96.44;100927.56;1394505;88;21994;-90
2021/12/31 01:43:30;;;;;;;8.33;5.27;;;;;;;2.81;96.50;100931.01;1394574;88;22039;-88
2021/12/31 01:46:00;;;;;;;8.73;5.07;;;;;;;2.81;96.47;100940.16;1394002;87;22083;-89
2021/12/31 01:48:36;;;;;;;6.23;4.30;;;;;;;2.85;96.69;100946.89;1392046;87;23609;-88
2021/12/31 01:51:03;;;;;;;6.93;5.20;;;;;;;2.91;96.79;100947.88;1391415;88;22224;-88
2021/12/31 01:53:32;;;;;;;6.60;5.07;;;;;;;2.89;96.58;100939.27;1393973;88;21971;-88
2021/12/31 01:56:01;;;;;;;8.10;5.90;;;;;;;2.84;96.41;100941.30;1395005;87;22163;-89
2021/12/31 01:58:29;;;;;;;6.07;4.47;;;;;;;2.83;96.50;100937.00;1396250;87;22082;-89
2021/12/31 02:00:58;;;;;;;6.37;4.63;;;;;;;2.84;96.57;100936.06;1395641;87;22119;-90
2021/12/31 02:03:25;;;;;;;6.23;4.77;;;;;;;2.85;96.70;100939.91;1394167;88;22016;-88
2021/12/31 02:05:52;;;;;;;6.57;4.03;;;;;;;2.89;96.55;100940.58;1393302;87;22075;-88
2021/12/31 02:08:19;;;;;;;5.80;3.80;;;;;;;2.91;96.60;100946.58;1396834;86;21965;-89
2021/12/31 02:10:50;;;;;;;6.67;5.00;;;;;;;2.94;96.53;100939.86;1408550;86;21991;-88
2021/12/31 02:13:19;;;;;;;5.45;3.95;;;;;;;2.99;96.51;100944.34;1410061;86;21900;-89
2021/12/31 02:15:46;;;;;;;6.73;4.17;;;;;;;3.04;96.67;100937.56;1409528;87;21198;-89
2021/12/31 02:18:14;;;;;;;6.30;4.87;;;;;;;3.03;96.39;100938.03;1409553;86;21965;-89
2021/12/31 02:20:45;;;;;;;6.03;4.13;;;;;;;3.03;96.17;100928.87;1410816;87;22012;-90
2021/12/31 02:23:23;;;;;;;6.70;3.97;;;;;;;3.02;96.09;100927.20;1409007;86;21981;-90
2021/12/31 02:25:51;;;;;;;8.57;5.53;;;;;;;3.04;96.18;100927.94;1395165;89;22055;-90
2021/12/31 02:28:19;;;;;;;7.20;4.73;;;;;;;3.07;96.30;100925.62;1410984;87;21907;-90
2021/12/31 02:30:47;;;;;;;5.50;4.03;;;;;;;3.04;95.98;100934.95;1410470;86;21958;-89
2021/12/31 02:33:14;;;;;;;7.07;4.53;;;;;;;3.04;96.06;100938.40;1409160;87;21869;-89
2021/12/31 02:35:42;;;;;;;7.27;5.03;;;;;;;3.06;96.09;100923.47;1409064;86;22042;-88
2021/12/31 02:38:09;;;;;;;6.70;4.00;;;;;;;3.05;96.03;100916.57;1389313;86;21981;-89
2021/12/31 02:40:36;;;;;;;4.87;3.47;;;;;;;2.99;95.75;100923.42;1408864;87;21915;-89
2021/12/31 02:43:06;;;;;;;6.03;4.30;;;;;;;2.95;96.09;100924.55;1409444;86;22062;-89
2021/12/31 02:45:37;;;;;;;6.23;4.57;;;;;;;2.91;96.08;100921.73;1408492;87;21840;-88
2021/12/31 02:48:05;;;;;;;6.60;4.43;;;;;;;2.85;96.16;100924.67;1408997;86;22956;-89
2021/12/31 02:50:38;;;;;;;4.40;3.20;;;;;;;2.85;96.16;100924.67;1409400;87;21379;-89
2021/12/31 02:53:14;;;;;;;5.37;3.77;;;;;;;2.84;96.32;100916.45;1409157;86;22106;-89
2021/12/31 02:55:44;;;;;;;7.13;4.47;;;;;;;2.85;96.53;100916.83;1409492;86;22097;-89
2021/12/31 02:58:11;;;;;;;6.47;4.27;;;;;;;2.80;96.67;100920.19;1408966;87;21922;-89
2021/12/31 03:00:41;;;;;;;6.10;3.93;;;;;;;2.81;96.73;100910.09;1392725;87;22055;-89
2021/12/31 03:03:11;;;;;;;5.78;3.85;;;;;;;2.85;96.82;100907.67;1408718;86;22019;-88
2021/12/31 03:05:40;;;;;;;6.70;4.23;;;;;;;2.86;96.85;100914.14;1408600;87;21243;-88
2021/12/31 03:08:13;;;;;;;3.97;3.47;;;;;;;2.85;96.79;100908.55;1408493;87;22003;-89
2021/12/31 03:10:39;;;;;;;6.83;4.33;;;;;;;2.86;96.71;100904.98;1411233;86;22267;-90
2021/12/31 03:13:09;;;;;;;11.47;3.57;;;;;;;2.90;96.87;100909.57;1423735;87;22061;-89
2021/12/31 03:15:38;;;;;;;5.30;3.77;;;;;;;2.91;96.79;100912.11;1412421;87;22910;-89
2021/12/31 03:18:08;;;;;;;4.53;3.22;;;;;;;2.94;97.00;100914.55;1410162;87;21942;-88
2021/12/31 03:20:37;;;;;;;5.80;3.67;;;;;;;2.97;97.06;100918.77;1411749;87;22218;-89
2021/12/31 03:23:05;;;;;;;5.10;3.77;;;;;;;2.96;96.86;100909.69;1411375;87;22017;-89
2021/12/31 03:25:33;;;;;;;5.00;3.87;;;;;;;2.92;96.71;100909.03;1411256;86;22008;-88
2021/12/31 03:28:00;;;;;;;6.73;4.00;;;;;;;2.90;96.79;100903.88;1411195;87;22993;-88
2021/12/31 03:30:28;;;;;;;6.10;4.17;;;;;;;2.87;96.90;100898.82;1412361;87;22998;-89
2021/12/31 03:32:55;;;;;;;6.77;4.30;;;;;;;2.84;97.35;100902.08;1392756;88;22077;-89
2021/12/31 03:35:22;;;;;;;5.97;4.27;;;;;;;2.82;97.27;100902.18;1413353;87;21958;-90
2021/12/31 03:37:49;;;;;;;5.00;3.37;;;;;;;2.84;97.26;100904.69;1413153;87;21958;-91
2021/12/31 03:40:16;;;;;;;4.60;3.57;;;;;;;2.82;97.82;100900.88;1412037;87;21891;-91
2021/12/31 03:42:43;;;;;;;4.87;3.50;;;;;;;2.80;97.71;100902.72;1411451;87;23006;-88
2021/12/31 03:45:11;;;;;;;5.30;3.53;;;;;;;2.79;97.51;100884.50;1411272;87;23013;-88
2021/12/31 03:47:38;;;;;;;5.40;3.40;;;;;;;2.79;97.51;100884.50;1411173;87;22137;-87
2021/12/31 03:50:06;;;;;;;5.00;3.40;;;;;;;2.80;97.62;100892.73;1411349;86;22015;-87
2021/12/31 03:52:39;;;;;;;5.53;3.37;;;;;;;2.79;97.79;100890.59;1411008;87;21950;-88
2021/12/31 03:55:09;;;;;;;5.73;3.87;;;;;;;2.81;97.91;100891.80;1410979;87;22074;-88
2021/12/31 03:57:38;;;;;;;4.20;3.67;;;;;;;2.83;97.95;100897.79;1411343;87;22068;-88
2021/12/31 04:00:09;;;;;;;5.50;3.83;;;;;;;2.87;98.06;100890.97;1411191;87;22032;-88
2021/12/31 04:02:36;;;;;;;7.05;4.60;;;;;;;2.93;98.04;100884.55;1388928;87;22054;-88
2021/12/31 04:05:04;;;;;;;6.77;4.70;;;;;;;2.96;97.99;100884.37;1387892;89;22621;-88
2021/12/31 04:07:31;;;;;;;7.47;4.73;;;;;;;2.92;97.95;100888.95;1391552;87;22077;-88
2021/12/31 04:09:58;;;;;;;6.27;4.40;;;;;;;2.90;97.63;100889.96;1391627;88;22004;-88
2021/12/31 04:12:26;;;;;;;8.70;4.43;;;;;;;2.90;97.71;100894.72;1391674;88;22062;-88
2021/12/31 04:14:53;;;;;;;5.93;4.07;;;;;;;2.94;98.04;100896.72;1391783;88;21989;-89
2021/12/31 04:17:20;;;;;;;5.17;3.80;;;;;;;2.99;98.04;100892.05;1388426;89;21994;-89
2021/12/31 04:19:52;;;;;;;5.73;4.20;;;;;;;3.02;98.00;100882.75;1368443;90;22117;-88
2021/12/31 04:22:16;;;;;;;7.00;4.70;;;;;;;3.03;97.82;100883.12;1368226;90;22117;-89
2021/12/31 04:27:11;;;;;;;5.67;4.10;;;;;;;3.05;97.68;100883.88;1368260;89;22088;-89
2021/12/31 04:29:39;;;;;;;5.90;4.73;;;;;;;3.05;97.58;100888.23;1368334;89;21947;-89
2021/12/31 04:32:07;;;;;;;7.00;5.07;;;;;;;3.03;97.45;100884.42;1367978;89;21962;-89
2021/12/31 04:34:34;;;;;;;10.23;5.73;;;;;;;2.99;97.56;100877.66;1387995;88;22088;-89
2021/12/31 04:37:01;;;;;;;6.87;4.30;;;;;;;2.95;97.99;100878.78;1392788;88;22054;-90
2021/12/31 04:39:28;;;;;;;7.30;5.67;;;;;;;2.94;98.02;100879.25;1392370;87;22033;-88
2021/12/31 04:41:56;;;;;;;7.63;4.70;;;;;;;2.93;98.14;100872.80;1391382;88;22085;-89
2021/12/31 04:44:23;;;;;;;7.37;5.57;;;;;;;2.90;98.47;100867.73;1387692;89;22859;-88
2021/12/31 04:46:50;;;;;;;8.17;5.97;;;;;;;2.90;98.61;100865.13;1388296;89;22859;-89
2021/12/31 04:49:17;;;;;;;9.17;5.03;;;;;;;2.98;98.86;100865.53;1368661;89;22017;-88
2021/12/31 04:51:44;;;;;;;8.50;6.10;;;;;;;2.98;98.86;100865.53;1369080;90;21361;-88
2021/12/31 04:54:16;;;;;;;7.97;5.27;;;;;;;3.01;98.92;100869.28;1387983;88;22217;-89
2021/12/31 04:56:43;;;;;;;8.70;6.03;;;;;;;3.03;98.74;100866.59;1392528;88;21930;-89
2021/12/31 04:59:11;;;;;;;10.87;6.30;;;;;;;3.05;98.73;100862.95;1392828;88;21930;-90
2021/12/31 05:01:38;;;;;;;9.30;6.20;;;;;;;3.06;98.82;100873.78;1389449;87;22054;-90
2021/12/31 05:04:05;;;;;;;11.07;6.47;;;;;;;3.10;98.69;100876.59;1388446;87;22025;-90
2021/12/31 05:06:33;;;;;;;8.93;5.60;;;;;;;3.13;98.62;100882.94;1388989;89;21973;-89
2021/12/31 05:09:01;;;;;;;10.07;6.73;;;;;;;3.20;98.43;100885.23;1389593;87;22040;-90
2021/12/31 05:11:28;;;;;;;10.07;6.83;;;;;;;3.26;98.64;100888.80;1368462;90;22185;-90
2021/12/31 05:13:55;;;;;;;15.47;8.30;;;;;;;3.31;98.48;100874.95;1367296;90;21449;-90
2021/12/31 05:16:21;;;;;;;11.07;7.10;;;;;;;3.37;98.26;100881.16;1367599;90;22145;-90
2021/12/31 05:18:49;;;;;;;10.53;8.00;;;;;;;3.38;97.95;100886.77;1367096;90;21324;-89
2021/12/31 05:21:16;;;;;;;11.07;6.77;;;;;;;3.46;98.27;100899.41;1366796;90;22074;-90
2021/12/31 05:23:43;;;;;;;12.53;7.33;;;;;;;3.58;98.00;100885.58;1366857;90;22052;-90
2021/12/31 05:26:10;;;;;;;27.53;15.10;;;;;;;3.58;98.00;100885.58;1367396;90;21271;-89
2021/12/31 05:28:37;;;;;;;51.20;28.43;;;;;;;3.59;97.65;100857.99;1368002;90;21302;-89
2021/12/31 05:31:04;;;;;;;23.43;12.50;;;;;;;3.59;97.65;100857.99;1368006;89;21390;-89
2021/12/31 05:33:31;;;;;;;17.30;9.07;;;;;;;3.58;96.96;100869.41;1367259;90;21986;-88
2021/12/31 05:36:00;;;;;;;12.57;8.40;;;;;;;3.56;96.87;100877.80;1367651;89;22115;-89
2021/12/31 05:38:27;;;;;;;14.50;9.10;;;;;;;3.53;97.03;100883.23;1350693;91;21427;-90
2021/12/31 05:40:54;;;;;;;17.10;11.07;;;;;;;3.55;96.88;100877.91;1367045;90;21368;-90
2021/12/31 05:43:21;;;;;;;17.90;11.50;;;;;;;3.56;97.02;100872.58;1367275;90;22366;-90
2021/12/31 05:45:48;;;;;;;12.43;8.27;;;;;;;3.56;96.94;100873.05;1367455;90;21309;-90
2021/12/31 05:48:15;;;;;;;11.63;8.37;;;;;;;3.59;97.12;100878.09;1367251;90;21294;-90
2021/12/31 05:50:42;;;;;;;10.90;7.13;;;;;;;3.58;96.93;100873.33;1367774;89;22040;-90
2021/12/31 05:53:11;;;;;;;12.63;8.10;;;;;;;3.58;96.91;100880.34;1367084;90;21309;-91
2021/12/31 05:55:38;;;;;;;9.53;6.47;;;;;;;3.55;96.86;100880.53;1367281;90;21967;-90
2021/12/31 05:58:05;;;;;;;13.37;8.23;;;;;;;3.54;96.83;100881.00;1367741;89;22953;-90
2021/12/31 06:00:32;;;;;;;12.93;8.30;;;;;;;3.55;96.85;100881.37;1368028;89;22040;-91
2021/12/31 06:02:59;;;;;;;13.07;8.53;;;;;;;3.51;96.84;100881.63;1367935;89;21346;-89
2021/12/31 06:05:27;;;;;;;14.13;8.63;;;;;;;3.57;96.92;100880.82;1367357;90;22034;-90
2021/12/31 06:07:57;;;;;;;13.30;8.53;;;;;;;3.58;96.91;100877.26;1367522;90;22439;-90
2021/12/31 06:10:25;;;;;;;13.10;8.90;;;;;;;3.61;96.34;100905.87;1367767;90;22115;-90
2021/12/31 06:12:58;;;;;;;13.30;8.87;;;;;;;3.64;96.66;100907.94;1381510;88;21530;-88
2021/12/31 06:15:27;;;;;;;17.13;9.67;;;;;;;3.64;96.66;100907.94;1390715;87;21495;-89
2021/12/31 06:17:55;;;;;;;21.27;11.47;;;;;;;3.68;96.82;100912.04;1390550;88;21274;-89
2021/12/31 06:20:23;;;;;;;16.77;11.17;;;;;;;3.71;96.80;100905.31;1389991;88;21363;-87
2021/12/31 06:22:50;;;;;;;16.30;10.80;;;;;;;3.75;96.44;100910.76;1390082;88;21525;-87
2021/12/31 06:25:17;;;;;;;17.13;10.33;;;;;;;3.75;96.44;100910.76;1390208;87;22426;-87
2021/12/31 06:27:44;;;;;;;17.37;10.83;;;;;;;3.75;96.40;100917.30;1390667;87;23102;-86
2021/12/31 06:30:12;;;;;;;16.50;10.70;;;;;;;3.78;96.61;100917.95;1389907;88;21508;-86
2021/12/31 06:32:39;;;;;;;17.03;10.00;;;;;;;3.80;96.64;100923.95;1390448;87;21310;-86
2021/12/31 06:35:07;;;;;;;30.47;17.97;;;;;;;3.73;96.03;100916.55;1389875;88;21363;-86
2021/12/31 06:37:34;;;;;;;34.17;21.40;;;;;;;3.73;95.67;100936.17;1390408;87;21311;-86
2021/12/31 06:40:04;;;;;;;16.40;11.10;;;;;;;3.73;95.66;100925.70;1390165;87;21378;-86
2021/12/31 06:42:31;;;;;;;31.13;20.53;;;;;;;3.74;95.74;100930.00;1389356;88;22411;-86
2021/12/31 06:44:58;;;;;;;17.90;11.07;;;;;;;3.71;95.56;100922.33;1390492;88;22326;-86
2021/12/31 06:47:25;;;;;;;20.30;11.50;;;;;;;3.75;95.72;100923.84;1387386;88;21432;-87
2021/12/31 06:49:52;;;;;;;18.10;11.47;;;;;;;3.80;96.11;100921.33;1354251;90;21274;-86
2021/12/31 06:52:19;;;;;;;17.67;11.40;;;;;;;3.86;96.16;100922.73;1373032;88;21241;-86
2021/12/31 06:54:47;;;;;;;17.93;10.97;;;;;;;3.91;96.10;100922.44;1372453;88;21389;-86
2021/12/31 06:57:14;;;;;;;18.23;10.40;;;;;;;3.96;96.22;100919.92;1372404;88;21419;-86
2021/12/31 06:59:41;;;;;;;25.17;16.83;;;;;;;3.97;95.96;100912.45;1372483;88;21301;-85
2021/12/31 07:02:08;;;;;;;26.40;17.87;;;;;;;3.89;95.38;100923.86;1353924;91;21334;-86
2021/12/31 07:04:36;;;;;;;23.50;13.70;;;;;;;3.85;95.56;100935.44;1372159;90;21226;-84
2021/12/31 07:07:03;;;;;;;31.63;16.30;;;;;;;3.83;95.95;100938.64;1353953;91;21319;-84
2021/12/31 07:09:30;;;;;;;31.87;16.17;;;;;;;3.92;96.20;100980.45;1372607;88;21456;-84
2021/12/31 07:11:57;;;;;;;23.90;13.80;;;;;;;3.93;96.29;100982.13;1357249;88;21326;-85
2021/12/31 07:14:25;;;;;;;20.30;13.07;;;;;;;3.93;96.25;100982.96;1389189;88;21315;-85
2021/12/31 07:16:52;;;;;;;57.00;31.10;;;;;;;3.94;96.12;100968.95;1394540;88;21293;-85
2021/12/31 07:19:19;;;;;;;87.80;44.70;;;;;;;3.89;95.73;100969.69;1389544;88;21353;-84
2021/12/31 07:21:46;;;;;;;65.53;34.90;;;;;;;3.89;95.85;100967.55;1388863;88;21242;-85
2021/12/31 07:24:13;;;;;;;40.73;23.03;;;;;;;3.87;95.69;100965.00;1389175;88;22188;-85
2021/12/31 07:26:40;;;;;;;22.17;12.93;;;;;;;3.83;95.56;100962.20;1370653;90;21290;-86
2021/12/31 07:29:07;;;;;;;22.17;14.60;;;;;;;3.82;95.33;100961.81;1389157;88;21434;-85
2021/12/31 07:31:34;;;;;;;24.87;15.23;;;;;;;3.79;95.31;100957.59;1355299;92;21574;-86
2021/12/31 07:34:01;;;;;;;27.77;17.00;;;;;;;3.77;95.30;100951.63;1385777;88;21449;-79
2021/12/31 07:36:29;;;;;;;32.17;19.33;;;;;;;3.77;95.54;100962.53;1386336;88;21479;-79
2021/12/31 07:39:03;;;;;;;60.13;32.33;;;;;;;3.75;95.36;100969.66;1410398;87;21300;-79
2021/12/31 07:41:28;;;;;;;56.17;32.07;;;;;;;3.76;95.55;100970.03;1408091;87;21218;-80
2021/12/31 07:43:55;;;;;;;33.23;20.90;;;;;;;3.76;95.68;100973.95;1407661;87;21250;-79
2021/12/31 07:46:22;;;;;;;60.43;33.47;;;;;;;3.81;95.72;100970.61;1409790;88;21211;-79
2021/12/31 07:48:49;;;;;;;37.23;18.87;;;;;;;3.90;96.29;100963.50;1409420;87;21212;-79
2021/12/31 07:51:17;;;;;;;29.07;17.83;;;;;;;3.96;96.21;100964.45;1407820;87;21280;-86
2021/12/31 07:53:44;;;;;;;27.43;17.67;;;;;;;4.00;95.89;100967.27;1394643;88;22188;-87
2021/12/31 07:56:14;;;;;;;87.77;46.40;;;;;;;4.01;95.48;100965.49;1413099;87;22248;-88
2021/12/31 07:58:43;;;;;;;69.63;39.17;;;;;;;4.02;95.26;100971.09;1403175;87;21290;-88
2021/12/31 08:01:10;;;;;;;42.53;25.30;;;;;;;4.04;95.35;100956.14;1405519;87;22289;-87
2021/12/31 08:03:37;;;;;;;28.80;16.93;;;;;;;4.12;95.63;100955.20;1410147;87;22327;-90
2021/12/31 08:06:04;;;;;;;29.47;18.73;;;;;;;4.22;95.89;100947.62;1404630;87;22259;-86
2021/12/31 08:08:31;;;;;;;30.83;18.57;;;;;;;4.32;96.19;100942.20;1404559;87;21325;-85
2021/12/31 08:10:58;;;;;;;44.23;26.50;;;;;;;4.43;96.51;100943.69;1404148;88;21182;-85
2021/12/31 08:13:25;;;;;;;37.17;23.00;;;;;;;4.50;96.25;100931.87;1405807;87;21312;-85
2021/12/31 08:15:53;;;;;;;25.87;15.67;;;;;;;4.56;96.05;100927.19;1393229;87;21435;-85
2021/12/31 08:18:20;;;;;;;26.00;17.23;;;;;;;4.57;95.33;100951.14;1404685;87;21414;-85
2021/12/31 08:20:48;;;;;;;31.70;16.00;;;;;;;4.55;95.12;100939.94;1405261;87;21336;-85
2021/12/31 08:23:15;;;;;;;23.50;15.50;;;;;;;4.56;95.19;100929.33;1410108;87;22834;-85
2021/12/31 08:25:42;;;;;;;30.20;18.00;;;;;;;4.58;95.19;100931.87;1409635;87;21233;-85
2021/12/31 08:28:10;;;;;;;30.90;18.10;;;;;;;4.58;95.17;100922.70;1410776;87;21189;-85
2021/12/31 08:30:39;;;;;;;31.93;19.07;;;;;;;4.58;95.20;100915.67;1410716;87;21294;-85
2021/12/31 08:33:06;;;;;;;39.20;20.17;;;;;;;4.58;95.07;100912.20;1410894;87;21290;-85
2021/12/31 08:35:33;;;;;;;29.77;19.13;;;;;;;4.58;95.02;100913.52;1411119;87;21265;-85
2021/12/31 08:38:01;;;;;;;27.13;17.67;;;;;;;4.58;95.11;100913.52;1410982;87;21280;-85
2021/12/31 08:40:28;;;;;;;30.30;18.00;;;;;;;4.58;95.17;100918.28;1410797;87;21243;-86
2021/12/31 08:42:55;;;;;;;29.87;17.10;;;;;;;4.58;95.11;100922.70;1410875;87;21430;-85
2021/12/31 08:45:24;;;;;;;29.77;19.47;;;;;;;4.57;95.11;100938.03;1409990;87;22157;-85
2021/12/31 08:47:51;;;;;;;25.90;18.20;;;;;;;4.52;95.02;100950.14;1406788;87;21384;-85
2021/12/31 08:50:18;;;;;;;26.43;17.57;;;;;;;4.50;95.19;100946.28;1409979;87;21345;-86
2021/12/31 08:52:46;;;;;;;32.97;20.13;;;;;;;4.50;95.33;100960.70;1409426;87;21192;-85
2021/12/31 08:55:13;;;;;;;48.47;24.67;;;;;;;4.51;95.54;100972.86;1409954;87;21268;-86
2021/12/31 08:57:40;;;;;;;39.87;23.13;;;;;;;4.56;95.65;100984.86;1411054;87;21338;-85
2021/12/31 09:00:08;;;;;;;37.97;23.67;;;;;;;4.56;95.55;100997.48;1410713;87;21378;-85
2021/12/31 09:02:35;;;;;;;34.60;19.70;;;;;;;4.56;95.50;101009.77;1397213;88;21538;-85
2021/12/31 09:05:04;;;;;;;31.50;20.40;;;;;;;4.52;95.43;101004.71;1410703;87;21375;-85
2021/12/31 09:07:31;;;;;;;39.63;21.23;;;;;;;4.54;95.64;100987.56;1410866;87;21422;-85
2021/12/31 09:09:59;;;;;;;31.27;19.20;;;;;;;4.57;95.83;100977.36;1410986;87;21275;-84
2021/12/31 09:12:26;;;;;;;34.60;20.97;;;;;;;4.63;96.09;100968.66;1391086;89;21327;-84
2021/12/31 09:14:53;;;;;;;36.77;21.27;;;;;;;4.66;96.14;100971.53;1389281;88;21485;-85
2021/12/31 09:17:22;;;;;;;36.73;23.03;;;;;;;4.63;95.76;100990.08;1406698;87;21398;-87
2021/12/31 09:19:50;;;;;;;39.70;22.77;;;;;;;4.61;95.62;100990.19;1408856;87;21213;-85
2021/12/31 09:22:18;;;;;;;36.17;23.10;;;;;;;4.67;95.95;100986.34;1408119;87;21227;-85
2021/12/31 09:24:48;;;;;;;43.10;24.57;;;;;;;4.74;96.18;100970.58;1408161;87;21222;-85
2021/12/31 09:27:15;;;;;;;61.80;38.73;;;;;;;4.83;96.38;100958.20;1408327;87;21257;-85
2021/12/31 09:29:42;;;;;;;58.40;34.37;;;;;;;4.88;96.06;100944.33;1408212;87;21338;-85
2021/12/31 09:32:09;;;;;;;74.53;43.27;;;;;;;4.92;96.09;100936.64;1408319;87;21265;-85
2021/12/31 09:34:36;;;;;;;72.27;42.47;;;;;;;4.96;95.95;100928.10;1407816;87;21257;-85
2021/12/31 09:37:04;;;;;;;71.10;40.13;;;;;;;5.00;95.83;100922.17;1407554;87;22284;-85
2021/12/31 09:39:31;;;;;;;66.67;36.43;;;;;;;5.02;95.67;100918.99;1407496;87;21323;-85
2021/12/31 09:41:58;;;;;;;57.90;33.07;;;;;;;5.02;95.38;100922.93;1407625;87;22314;-84
2021/12/31 09:44:25;;;;;;;50.23;28.63;;;;;;;5.05;95.54;100924.04;1407973;87;21279;-84
2021/12/31 09:46:52;;;;;;;51.50;29.97;;;;;;;5.06;95.34;100940.14;1407650;87;21272;-85
2021/12/31 09:49:20;;;;;;;46.17;27.20;;;;;;;5.10;95.64;100945.58;1407862;87;21346;-84
2021/12/31 09:51:47;;;;;;;47.70;26.63;;;;;;;5.11;95.41;100931.03;1408396;87;21257;-84
2021/12/31 09:54:14;;;;;;;43.47;25.20;;;;;;;5.12;95.33;100929.24;1408255;87;22167;-84
2021/12/31 09:56:41;;;;;;;48.27;27.33;;;;;;;5.14;95.16;100936.55;1408641;87;21249;-84
2021/12/31 09:59:09;;;;;;;51.90;29.80;;;;;;;5.19;95.33;100927.91;1408482;87;21287;-84
2021/12/31 10:01:47;;;;;;;49.10;26.87;;;;;;;5.22;95.40;100927.71;1408542;87;21272;-85
2021/12/31 10:04:15;;;;;;;44.73;26.07;;;;;;;5.23;95.21;100927.23;1408464;87;21309;-85
2021/12/31 10:07:11;;;;;;;52.87;30.10;;;;;;;5.24;95.07;100935.50;1408404;87;21183;-85
2021/12/31 10:09:40;;;;;;;59.57;35.70;;;;;;;5.21;94.89;100936.54;1408096;87;21405;-86
2021/12/31 10:12:08;;;;;;;58.23;32.90;;;;;;;5.20;95.03;100937.45;1408219;87;21450;-86
2021/12/31 10:14:40;;;;;;;70.37;34.17;;;;;;;5.18;94.90;100940.68;1410528;87;21449;-86
2021/12/31 10:17:09;;;;;;;60.27;32.43;;;;;;;5.17;94.82;100931.10;1411045;87;21234;-86
2021/12/31 10:19:36;;;;;;;51.87;30.20;;;;;;;5.16;94.82;100939.92;1410983;87;21197;-86
2021/12/31 10:22:07;;;;;;;51.87;29.47;;;;;;;5.12;94.85;100930.11;1411005;87;21279;-87
2021/12/31 10:24:37;;;;;;;53.30;31.40;;;;;;;5.15;95.19;100915.92;1410777;87;21309;-86
2021/12/31 10:27:13;;;;;;;;;;;;;;;5.22;95.39;100909.34;1413044;87;21236;-86
2021/12/31 10:30:03;;;;;;;47.67;28.67;;;;;;;5.25;95.48;100914.38;1411114;87;20725;-87
2021/12/31 10:32:33;;;;;;;43.90;26.30;;;;;;;5.26;95.24;100913.44;1410438;87;21376;-86
2021/12/31 10:35:17;;;;;;;47.45;29.32;;;;;;;5.28;95.30;100909.41;1411212;87;21286;-88
2021/12/31 10:37:58;;;;;;;53.10;29.13;;;;;;;5.36;95.60;100901.39;1410747;87;22351;-88
2021/12/31 10:40:33;;;;;;;56.50;30.92;;;;;;;5.40;95.38;100913.36;1410855;87;21294;-88
2021/12/31 10:43:16;;;;;;;49.40;30.13;;;;;;;5.38;94.83;100916.58;1410808;87;21280;-88
2021/12/31 10:46:05;;;;;;;57.47;29.70;;;;;;;5.41;95.09;100912.44;1410966;87;21213;-88
2021/12/31 10:48:50;;;;;;;53.77;31.47;;;;;;;5.41;94.77;100909.81;1391057;88;21374;-88
2021/12/31 10:51:42;;;;;;;59.20;33.87;;;;;;;5.42;94.93;100911.48;1411380;87;21486;-88
2021/12/31 10:54:38;;;;;;;62.93;33.30;;;;;;;5.50;95.26;100916.23;1408422;87;22144;-88
2021/12/31 10:57:01;;;;;;;62.07;33.43;;;;;;;5.55;95.15;100885.70;1410990;87;22314;-88
2021/12/31 10:59:33;;;;;;;58.83;32.27;;;;;;;5.59;95.02;100889.82;1410869;87;22291;-89
2021/12/31 11:01:57;;;;;;;53.20;30.37;;;;;;;5.57;94.76;100903.04;1410853;87;21397;-89
2021/12/31 11:04:28;;;;;;;49.10;30.07;;;;;;;5.59;94.81;100901.16;1411713;87;21323;-90
2021/12/31 11:06:57;;;;;;;56.53;32.53;;;;;;;5.64;95.09;100896.92;1411128;87;22122;-89
2021/12/31 11:09:24;;;;;;;56.57;31.57;;;;;;;5.64;94.89;100898.23;1410899;87;22159;-89
2021/12/31 11:11:53;;;;;;;60.20;33.20;;;;;;;5.64;94.79;100899.55;1410807;87;21257;-89
2021/12/31 11:14:20;;;;;;;57.97;31.83;;;;;;;5.64;94.68;100895.13;1411150;87;21375;-89
2021/12/31 11:16:47;;;;;;;62.30;35.10;;;;;;;5.66;94.90;100894.53;1408382;87;22336;-89
2021/12/31 11:19:16;;;;;;;57.97;33.30;;;;;;;5.67;94.83;100901.97;1408183;87;22130;-89
2021/12/31 11:21:46;;;;;;;64.53;33.07;;;;;;;5.69;95.00;100902.67;1408701;87;21280;-89
2021/12/31 11:24:34;;;;;;;64.60;39.10;;;;;;;5.68;94.59;100908.89;1391630;87;21332;-90
2021/12/31 11:27:29;;;;;;;71.37;37.33;;;;;;;5.67;94.57;100896.71;1408436;87;21324;-89
2021/12/31 11:29:59;;;;;;;72.80;38.97;;;;;;;5.60;94.47;100884.45;1408277;87;21206;-89
2021/12/31 11:32:57;;;;;;;65.53;36.47;;;;;;;5.61;94.76;100891.84;1408326;88;21428;-89
2021/12/31 11:35:35;;;;;;;65.93;37.37;;;;;;;5.65;95.04;100889.40;1406342;87;21427;-89
2021/12/31 11:38:10;;;;;;;67.47;35.67;;;;;;;5.63;94.84;100882.92;1408393;87;22071;-88